createdAt,value
2022-10-16T00:01:21.821Z,12.69
2022-10-16T00:05:23.735Z,12.62
2022-10-16T00:09:25.732Z,12.58
2022-10-16T00:13:27.740Z,12.58
2022-10-16T00:17:30.220Z,12.59
2022-10-16T00:21:32.319Z,12.59
2022-10-16T00:25:34.233Z,12.60
2022-10-16T00:29:36.077Z,12.60
2022-10-16T00:33:40.212Z,12.62
2022-10-16T00:37:42.130Z,12.63
2022-10-16T00:41:43.974Z,12.63
2022-10-16T00:45:45.747Z,12.63
2022-10-16T00:49:50.078Z,12.62
2022-10-16T00:53:52.448Z,12.63
2022-10-16T00:57:55.048Z,12.63
2022-10-16T01:01:58.120Z,12.63
2022-10-16T01:06:26.827Z,12.62
2022-10-16T01:10:53.901Z,12.59
2022-10-16T01:15:09.672Z,12.59
2022-10-16T01:19:32.625Z,12.58
2022-10-16T01:23:52.308Z,12.60
2022-10-16T01:27:55.439Z,12.62
2022-10-16T01:32:02.693Z,12.64
2022-10-16T01:36:12.412Z,12.66
2022-10-16T01:40:19.913Z,12.62
2022-10-16T01:44:28.793Z,12.60
2022-10-16T01:48:33.715Z,12.62
2022-10-16T01:52:40.673Z,12.63
2022-10-16T01:56:44.037Z,12.67
2022-10-16T02:00:48.415Z,12.69
2022-10-16T02:04:58.837Z,12.67
2022-10-16T02:09:00.801Z,12.67
2022-10-16T02:13:37.659Z,12.67
2022-10-16T02:17:39.583Z,12.71
2022-10-16T02:21:47.215Z,12.73
2022-10-16T02:25:51.477Z,12.72
2022-10-16T02:30:00.716Z,12.70
2022-10-16T02:34:05.624Z,12.70
2022-10-16T02:42:14.208Z,12.74
2022-10-16T02:46:18.224Z,12.73
2022-10-16T02:50:20.211Z,12.71
2022-10-16T02:54:22.057Z,12.69
2022-10-16T02:58:23.878Z,12.69
2022-10-16T03:02:25.833Z,12.70
2022-10-16T03:06:27.676Z,12.72
2022-10-16T03:10:29.566Z,12.69
2022-10-16T03:14:31.493Z,12.63
2022-10-16T03:18:33.351Z,12.59
2022-10-16T03:22:35.290Z,12.58
2022-10-16T03:26:37.677Z,12.59
2022-10-16T03:30:40.316Z,12.60
2022-10-16T03:34:42.196Z,12.60
2022-10-16T03:38:45.020Z,12.61
2022-10-16T03:42:46.995Z,12.64
2022-10-16T03:46:48.885Z,12.68
2022-10-16T03:50:52.141Z,12.70
2022-10-16T03:54:54.078Z,12.72
2022-10-16T03:58:55.898Z,12.72
2022-10-16T04:02:57.786Z,12.71
2022-10-16T04:06:59.633Z,12.71
2022-10-16T04:11:02.080Z,12.71
2022-10-16T04:15:04.009Z,12.72
2022-10-16T04:19:05.883Z,12.71
2022-10-16T04:23:07.697Z,12.67
2022-10-16T04:27:09.526Z,12.64
2022-10-16T04:31:11.421Z,12.62
2022-10-16T04:35:13.232Z,12.61
2022-10-16T04:39:15.058Z,12.62
2022-10-16T04:43:16.952Z,12.59
2022-10-16T04:47:19.191Z,12.56
2022-10-16T04:51:21.111Z,12.53
2022-10-16T04:55:23.006Z,12.52
2022-10-16T04:59:24.858Z,12.52
2022-10-16T05:03:26.756Z,12.51
2022-10-16T05:07:28.799Z,12.46
2022-10-16T05:11:31.227Z,12.43
2022-10-16T05:15:33.019Z,12.40
2022-10-16T05:19:34.977Z,12.39
2022-10-16T05:23:36.782Z,12.38
2022-10-16T05:27:38.698Z,12.36
2022-10-16T05:31:40.657Z,12.34
2022-10-16T05:35:42.827Z,12.35
2022-10-16T05:39:44.696Z,12.37
2022-10-16T05:43:46.499Z,12.41
2022-10-16T05:47:48.322Z,12.46
2022-10-16T05:51:50.286Z,12.51
2022-10-16T05:55:53.678Z,12.53
2022-10-16T05:59:56.681Z,12.58
2022-10-16T06:03:59.028Z,12.70
2022-10-16T06:08:00.875Z,12.87
2022-10-16T06:12:03.022Z,13.04
2022-10-16T06:16:05.359Z,13.16
2022-10-16T06:20:07.547Z,13.23
2022-10-16T06:24:10.872Z,13.31
2022-10-16T06:28:14.940Z,13.36
2022-10-16T06:32:17.029Z,13.33
2022-10-16T06:36:19.096Z,13.27
2022-10-16T06:40:21.007Z,13.29
2022-10-16T06:44:22.986Z,13.32
2022-10-16T06:48:25.835Z,13.39
2022-10-16T06:52:30.797Z,13.51
2022-10-16T06:56:33.426Z,13.57
2022-10-16T07:00:35.700Z,13.71
2022-10-16T07:04:37.520Z,13.98
2022-10-16T07:08:41.701Z,14.30
2022-10-16T07:12:45.636Z,14.60
2022-10-16T07:16:48.787Z,14.88
2022-10-16T07:20:50.616Z,15.15
2022-10-16T07:24:53.111Z,15.47
2022-10-16T07:28:55.448Z,15.77
2022-10-16T07:32:57.373Z,16.05
2022-10-16T07:36:59.315Z,16.24
2022-10-16T07:41:05.229Z,16.40
2022-10-16T07:45:07.870Z,16.51
2022-10-16T07:49:09.824Z,16.61
2022-10-16T07:53:12.737Z,16.73
2022-10-16T07:57:19.863Z,16.87
2022-10-16T08:01:21.953Z,17.10
2022-10-16T08:05:23.806Z,17.36
2022-10-16T08:09:25.694Z,17.56
2022-10-16T08:13:27.679Z,17.58
2022-10-16T08:17:29.763Z,17.54
2022-10-16T08:21:31.602Z,17.55
2022-10-16T08:25:36.827Z,17.76
2022-10-16T08:29:39.132Z,17.94
2022-10-16T08:33:42.781Z,18.10
2022-10-16T08:37:44.715Z,18.21
2022-10-16T08:41:46.591Z,18.33
2022-10-16T08:46:16.487Z,18.39
2022-10-16T08:50:27.612Z,18.45
2022-10-16T08:54:41.248Z,18.51
2022-10-16T08:58:49.879Z,18.64
2022-10-16T09:03:03.905Z,18.69
2022-10-16T09:07:16.969Z,18.72
2022-10-16T09:11:27.995Z,18.82
2022-10-16T09:15:35.936Z,19.01
2022-10-16T09:19:46.959Z,19.21
2022-10-16T09:23:49.645Z,19.35
2022-10-16T09:27:54.015Z,19.35
2022-10-16T09:32:07.667Z,19.24
2022-10-16T09:36:10.983Z,19.07
2022-10-16T09:40:24.004Z,19.00
2022-10-16T09:44:30.413Z,19.00
2022-10-16T09:48:38.589Z,19.00
2022-10-16T09:52:40.907Z,19.02
2022-10-16T09:56:46.063Z,19.04
2022-10-16T10:00:55.114Z,19.05
2022-10-16T10:04:57.827Z,19.08
2022-10-16T10:09:01.125Z,19.08
2022-10-16T10:13:03.169Z,19.04
2022-10-16T10:17:31.908Z,19.00
2022-10-16T10:21:34.525Z,18.94
2022-10-16T10:25:53.119Z,18.93
2022-10-16T10:30:07.703Z,18.98
2022-10-16T10:34:59.070Z,18.95
2022-10-16T10:39:08.394Z,18.96
2022-10-16T10:43:28.952Z,19.02
2022-10-16T10:47:57.538Z,19.11
2022-10-16T10:52:18.476Z,19.09
2022-10-16T10:56:52.755Z,19.12
2022-10-16T11:01:12.444Z,19.21
2022-10-16T11:05:14.249Z,19.29
2022-10-16T11:09:28.722Z,19.37
2022-10-16T11:13:50.767Z,19.36
2022-10-16T11:17:59.799Z,19.35
2022-10-16T11:22:23.113Z,19.35
2022-10-16T11:26:34.518Z,19.41
2022-10-16T11:31:11.607Z,19.47
2022-10-16T11:35:22.199Z,19.53
2022-10-16T11:39:31.258Z,19.61
2022-10-16T11:43:39.111Z,19.72
2022-10-16T11:48:00.298Z,19.84
2022-10-16T11:52:17.148Z,19.88
2022-10-16T11:56:21.510Z,19.84
2022-10-16T12:00:35.514Z,19.82
2022-10-16T12:04:51.699Z,19.85
2022-10-16T12:08:54.978Z,19.94
2022-10-16T12:12:58.170Z,20.03
2022-10-16T12:17:24.705Z,20.08
2022-10-16T12:21:31.931Z,20.09
2022-10-16T12:25:46.739Z,20.02
2022-10-16T12:29:56.719Z,19.95
2022-10-16T12:34:02.812Z,19.90
2022-10-16T12:38:18.302Z,19.88
2022-10-16T12:42:26.615Z,19.82
2022-10-16T12:46:33.662Z,19.75
2022-10-16T12:50:38.801Z,19.72
2022-10-16T12:54:42.429Z,19.70
2022-10-16T12:58:50.533Z,19.66
2022-10-16T13:03:12.662Z,19.60
2022-10-16T13:07:35.899Z,19.54
2022-10-16T13:11:58.948Z,19.47
2022-10-16T13:16:13.165Z,19.44
2022-10-16T13:20:20.933Z,19.50
2022-10-16T13:24:52.106Z,19.62
2022-10-16T13:28:54.029Z,19.74
2022-10-16T13:33:13.948Z,19.82
2022-10-16T13:37:21.548Z,19.84
2022-10-16T13:41:23.428Z,19.83
2022-10-16T13:45:26.022Z,19.83
2022-10-16T13:49:28.647Z,19.75
2022-10-16T13:53:35.838Z,19.64
2022-10-16T13:57:37.949Z,19.48
2022-10-16T14:01:44.603Z,19.32
2022-10-16T14:05:48.809Z,19.19
2022-10-16T14:09:52.333Z,19.07
2022-10-16T14:13:55.433Z,18.99
2022-10-16T14:17:58.700Z,18.96
2022-10-16T14:22:02.714Z,18.89
2022-10-16T14:26:10.794Z,18.81
2022-10-16T14:30:18.389Z,18.73
2022-10-16T14:34:35.549Z,18.64
2022-10-16T14:38:39.292Z,18.52
2022-10-16T14:42:44.673Z,18.43
2022-10-16T14:46:46.820Z,18.34
2022-10-16T14:50:48.868Z,18.30
2022-10-16T14:54:55.139Z,18.28
2022-10-16T14:58:57.784Z,18.27
2022-10-16T15:02:59.700Z,18.24
2022-10-16T15:07:01.467Z,18.19
2022-10-16T15:11:03.364Z,18.11
2022-10-16T15:15:23.687Z,18.04
2022-10-16T15:19:25.556Z,17.99
2022-10-16T15:23:27.476Z,17.98
2022-10-16T15:27:29.584Z,17.95
2022-10-16T15:31:32.800Z,17.91
2022-10-16T15:35:34.772Z,17.85
2022-10-16T15:39:41.248Z,17.78
2022-10-16T15:43:45.530Z,17.70
2022-10-16T15:47:47.888Z,17.62
2022-10-16T15:51:49.694Z,17.57
2022-10-16T15:55:51.729Z,17.53
2022-10-16T15:59:53.578Z,17.47
2022-10-16T16:03:56.263Z,17.40
2022-10-16T16:07:58.129Z,17.32
2022-10-16T16:12:01.509Z,17.27
2022-10-16T16:16:07.189Z,17.23
2022-10-16T16:20:09.904Z,17.18
2022-10-16T16:24:11.881Z,17.13
2022-10-16T16:28:14.878Z,17.07
2022-10-16T16:32:16.851Z,17.00
2022-10-16T16:36:19.683Z,16.94
2022-10-16T16:40:21.545Z,16.91
2022-10-16T16:44:23.565Z,16.87
2022-10-16T16:48:25.468Z,16.83
2022-10-16T16:52:29.957Z,16.79
2022-10-16T16:56:31.825Z,16.74
2022-10-16T17:00:33.814Z,16.69
2022-10-16T17:04:35.658Z,16.67
2022-10-16T17:08:38.912Z,16.63
2022-10-16T17:12:41.412Z,16.58
2022-10-16T17:16:48.115Z,16.51
2022-10-16T17:20:50.780Z,16.47
2022-10-16T17:24:54.258Z,16.47
2022-10-16T17:28:58.677Z,16.45
2022-10-16T17:33:01.594Z,16.43
2022-10-16T17:37:03.553Z,16.41
2022-10-16T17:41:23.249Z,16.37
2022-10-16T17:45:25.317Z,16.34
2022-10-16T17:49:27.206Z,16.34
2022-10-16T17:53:29.445Z,16.32
2022-10-16T17:57:31.336Z,16.32
2022-10-16T18:01:36.434Z,16.29
2022-10-16T18:05:38.299Z,16.27
2022-10-16T18:10:09.991Z,16.26
2022-10-16T18:14:03.131Z,16.24
2022-10-16T18:18:05.882Z,16.20
2022-10-16T18:22:07.844Z,16.15
2022-10-16T18:26:11.173Z,16.10
2022-10-16T18:30:13.565Z,16.07
2022-10-16T18:34:16.255Z,16.05
2022-10-16T18:38:19.223Z,16.00
2022-10-16T18:42:21.318Z,15.95
2022-10-16T18:46:25.108Z,15.92
2022-10-16T18:50:26.960Z,15.87
2022-10-16T18:54:30.393Z,15.85
2022-10-16T18:58:34.753Z,15.81
2022-10-16T19:02:36.607Z,15.74
2022-10-16T19:06:42.891Z,15.71
2022-10-16T19:10:44.934Z,15.70
2022-10-16T19:14:50.098Z,15.70
2022-10-16T19:18:55.048Z,15.63
2022-10-16T19:22:58.562Z,15.56
2022-10-16T19:27:00.440Z,15.47
2022-10-16T19:31:07.368Z,15.40
2022-10-16T19:35:09.353Z,15.31
2022-10-16T19:39:13.894Z,15.22
2022-10-16T19:43:16.121Z,15.09
2022-10-16T19:47:20.803Z,14.95
2022-10-16T19:51:26.319Z,14.87
2022-10-16T19:55:31.069Z,14.79
2022-10-16T19:59:33.092Z,14.73
2022-10-16T20:03:40.926Z,14.68
2022-10-16T20:07:42.741Z,14.55
2022-10-16T20:11:44.621Z,14.42
2022-10-16T20:15:47.390Z,14.35
2022-10-16T20:19:49.213Z,14.36
2022-10-16T20:23:51.588Z,14.39
2022-10-16T20:27:53.458Z,14.39
2022-10-16T20:31:55.511Z,14.39
2022-10-16T20:35:57.388Z,14.43
2022-10-16T20:39:59.268Z,14.47
2022-10-16T20:44:03.049Z,14.51
2022-10-16T20:48:05.399Z,14.55
2022-10-16T20:52:07.376Z,14.55
2022-10-16T20:56:09.385Z,14.51
2022-10-16T21:00:12.448Z,14.46
2022-10-16T21:04:14.290Z,14.46
2022-10-16T21:08:16.325Z,14.43
2022-10-16T21:12:18.224Z,14.40
2022-10-16T21:16:20.855Z,14.40
2022-10-16T21:20:22.804Z,14.45
2022-10-16T21:24:24.751Z,14.50
2022-10-16T21:28:29.958Z,14.53
2022-10-16T21:32:31.881Z,14.47
2022-10-16T21:36:36.455Z,14.35
2022-10-16T21:40:38.319Z,14.21
2022-10-16T21:44:40.205Z,14.19
2022-10-16T21:48:45.127Z,14.21
2022-10-16T21:52:46.976Z,14.24
2022-10-16T21:56:49.199Z,14.25
2022-10-16T22:00:51.140Z,14.22
2022-10-16T22:04:52.986Z,14.20
2022-10-16T22:09:00.978Z,14.19
2022-10-16T22:13:02.863Z,14.16
2022-10-16T22:17:04.743Z,14.11
2022-10-16T22:21:09.191Z,13.99
2022-10-16T22:25:11.233Z,13.85
2022-10-16T22:29:14.154Z,13.73
2022-10-16T22:33:15.983Z,13.63
2022-10-16T22:37:17.861Z,13.52
2022-10-16T22:41:20.932Z,13.39
2022-10-16T22:45:22.971Z,13.26
2022-10-16T22:49:24.966Z,13.20
2022-10-16T22:53:26.966Z,13.16
2022-10-16T22:57:28.825Z,13.10
2022-10-16T23:01:37.614Z,13.02
2022-10-16T23:05:41.619Z,12.89
2022-10-16T23:09:43.500Z,12.80
2022-10-16T23:13:45.840Z,12.72
2022-10-16T23:17:47.836Z,12.62
2022-10-16T23:21:49.731Z,12.42
2022-10-16T23:25:51.700Z,12.25
2022-10-16T23:29:53.598Z,12.16
2022-10-16T23:33:57.097Z,12.15
2022-10-16T23:37:58.984Z,12.16
2022-10-16T23:42:01.072Z,12.18
2022-10-16T23:46:03.440Z,12.18
2022-10-16T23:50:05.850Z,12.15
2022-10-16T23:54:08.016Z,12.13
2022-10-16T23:58:09.919Z,12.17
